sensor_id;sensor_type;location;lat;lon;timestamp;P1;durP1;ratioP1;P2;durP2;ratioP2
43327;SDS011;28923;45.412;10.852;2023-01-19T00:00:05;6.45;;;4.95;;
43327;SDS011;28923;45.412;10.852;2023-01-19T00:02:34;5.97;;;4.70;;
43327;SDS011;28923;45.412;10.852;2023-01-19T00:05:00;6.68;;;5.32;;
43327;SDS011;28923;45.412;10.852;2023-01-19T00:07:26;6.63;;;5.25;;
43327;SDS011;28923;45.412;10.852;2023-01-19T00:09:53;5.15;;;4.63;;
43327;SDS011;28923;45.412;10.852;2023-01-19T00:12:18;6.03;;;4.88;;
43327;SDS011;28923;45.412;10.852;2023-01-19T00:14:44;5.53;;;4.60;;
43327;SDS011;28923;45.412;10.852;2023-01-19T00:17:09;6.53;;;4.57;;
43327;SDS011;28923;45.412;10.852;2023-01-19T00:19:35;6.45;;;5.22;;
43327;SDS011;28923;45.412;10.852;2023-01-19T00:22:00;6.18;;;4.80;;
43327;SDS011;28923;45.412;10.852;2023-01-19T00:24:25;6.45;;;4.82;;
43327;SDS011;28923;45.412;10.852;2023-01-19T00:26:51;5.05;;;4.53;;
43327;SDS011;28923;45.412;10.852;2023-01-19T00:29:16;5.60;;;4.68;;
43327;SDS011;28923;45.412;10.852;2023-01-19T00:31:42;5.10;;;4.47;;
43327;SDS011;28923;45.412;10.852;2023-01-19T00:34:07;5.68;;;4.70;;
43327;SDS011;28923;45.412;10.852;2023-01-19T00:36:33;6.05;;;4.57;;
43327;SDS011;28923;45.412;10.852;2023-01-19T00:38:58;4.65;;;4.18;;
43327;SDS011;28923;45.412;10.852;2023-01-19T00:41:24;5.97;;;4.55;;
43327;SDS011;28923;45.412;10.852;2023-01-19T00:44:08;5.00;;;4.50;;
43327;SDS011;28923;45.412;10.852;2023-01-19T00:46:33;5.25;;;4.75;;
43327;SDS011;28923;45.412;10.852;2023-01-19T00:48:58;5.95;;;5.00;;
43327;SDS011;28923;45.412;10.852;2023-01-19T00:51:24;5.68;;;4.70;;
43327;SDS011;28923;45.412;10.852;2023-01-19T00:53:49;6.25;;;4.82;;
43327;SDS011;28923;45.412;10.852;2023-01-19T00:56:15;6.00;;;4.78;;
43327;SDS011;28923;45.412;10.852;2023-01-19T00:58:41;6.82;;;4.57;;
43327;SDS011;28923;45.412;10.852;2023-01-19T01:01:06;5.53;;;4.55;;
43327;SDS011;28923;45.412;10.852;2023-01-19T01:03:32;5.30;;;4.50;;
43327;SDS011;28923;45.412;10.852;2023-01-19T01:05:57;5.25;;;4.38;;
43327;SDS011;28923;45.412;10.852;2023-01-19T01:08:23;6.47;;;4.82;;
43327;SDS011;28923;45.412;10.852;2023-01-19T01:10:49;5.93;;;4.55;;
43327;SDS011;28923;45.412;10.852;2023-01-19T01:13:14;5.63;;;4.68;;
43327;SDS011;28923;45.412;10.852;2023-01-19T01:15:40;5.68;;;4.57;;
43327;SDS011;28923;45.412;10.852;2023-01-19T01:18:05;5.03;;;4.18;;
43327;SDS011;28923;45.412;10.852;2023-01-19T01:20:30;5.57;;;4.53;;
43327;SDS011;28923;45.412;10.852;2023-01-19T01:22:58;6.28;;;4.40;;
43327;SDS011;28923;45.412;10.852;2023-01-19T01:25:24;6.38;;;4.90;;
43327;SDS011;28923;45.412;10.852;2023-01-19T01:27:50;5.88;;;4.78;;
43327;SDS011;28923;45.412;10.852;2023-01-19T01:30:16;6.45;;;4.50;;
43327;SDS011;28923;45.412;10.852;2023-01-19T01:32:41;4.75;;;4.22;;
43327;SDS011;28923;45.412;10.852;2023-01-19T01:35:08;4.78;;;4.22;;
43327;SDS011;28923;45.412;10.852;2023-01-19T01:37:34;4.93;;;4.15;;
43327;SDS011;28923;45.412;10.852;2023-01-19T01:40:00;4.88;;;4.38;;
43327;SDS011;28923;45.412;10.852;2023-01-19T01:42:26;5.68;;;4.88;;
43327;SDS011;28923;45.412;10.852;2023-01-19T01:44:53;4.93;;;4.35;;
43327;SDS011;28923;45.412;10.852;2023-01-19T01:49:48;6.15;;;4.25;;
43327;SDS011;28923;45.412;10.852;2023-01-19T01:52:14;4.80;;;4.28;;
43327;SDS011;28923;45.412;10.852;2023-01-19T01:54:39;4.70;;;4.05;;
43327;SDS011;28923;45.412;10.852;2023-01-19T01:57:06;4.50;;;4.10;;
43327;SDS011;28923;45.412;10.852;2023-01-19T01:59:38;4.55;;;4.03;;
43327;SDS011;28923;45.412;10.852;2023-01-19T02:02:06;5.47;;;4.15;;
43327;SDS011;28923;45.412;10.852;2023-01-19T02:04:52;4.22;;;3.80;;
43327;SDS011;28923;45.412;10.852;2023-01-19T02:07:24;5.30;;;4.20;;
43327;SDS011;28923;45.412;10.852;2023-01-19T02:10:09;4.57;;;4.15;;
43327;SDS011;28923;45.412;10.852;2023-01-19T02:12:53;4.63;;;3.70;;
43327;SDS011;28923;45.412;10.852;2023-01-19T02:15:37;4.30;;;3.85;;
43327;SDS011;28923;45.412;10.852;2023-01-19T02:18:02;4.63;;;4.03;;
43327;SDS011;28923;45.412;10.852;2023-01-19T02:20:28;4.43;;;4.00;;
43327;SDS011;28923;45.412;10.852;2023-01-19T02:22:54;5.18;;;4.05;;
43327;SDS011;28923;45.412;10.852;2023-01-19T02:25:21;5.40;;;4.30;;
43327;SDS011;28923;45.412;10.852;2023-01-19T02:27:47;4.18;;;3.70;;
43327;SDS011;28923;45.412;10.852;2023-01-19T02:30:13;4.90;;;4.25;;
43327;SDS011;28923;45.412;10.852;2023-01-19T02:32:40;6.07;;;4.07;;
43327;SDS011;28923;45.412;10.852;2023-01-19T02:35:06;5.25;;;3.88;;
43327;SDS011;28923;45.412;10.852;2023-01-19T02:37:31;5.65;;;3.97;;
43327;SDS011;28923;45.412;10.852;2023-01-19T02:40:02;6.85;;;3.75;;
43327;SDS011;28923;45.412;10.852;2023-01-19T02:43:11;4.40;;;4.00;;
43327;SDS011;28923;45.412;10.852;2023-01-19T02:45:18;4.50;;;3.88;;
43327;SDS011;28923;45.412;10.852;2023-01-19T02:47:45;4.75;;;3.78;;
43327;SDS011;28923;45.412;10.852;2023-01-19T02:52:57;4.30;;;3.55;;
43327;SDS011;28923;45.412;10.852;2023-01-19T02:55:26;5.07;;;4.30;;
43327;SDS011;28923;45.412;10.852;2023-01-19T03:02:58;5.28;;;3.90;;
43327;SDS011;28923;45.412;10.852;2023-01-19T03:07:57;4.55;;;3.75;;
43327;SDS011;28923;45.412;10.852;2023-01-19T03:10:47;4.30;;;3.90;;
43327;SDS011;28923;45.412;10.852;2023-01-19T03:18:08;4.82;;;3.65;;
43327;SDS011;28923;45.412;10.852;2023-01-19T03:20:34;5.05;;;3.88;;
43327;SDS011;28923;45.412;10.852;2023-01-19T03:23:01;5.95;;;3.88;;
43327;SDS011;28923;45.412;10.852;2023-01-19T03:25:28;4.18;;;3.63;;
43327;SDS011;28923;45.412;10.852;2023-01-19T03:27:55;5.35;;;3.72;;
43327;SDS011;28923;45.412;10.852;2023-01-19T03:30:23;4.60;;;3.90;;
43327;SDS011;28923;45.412;10.852;2023-01-19T03:32:58;4.30;;;3.50;;
43327;SDS011;28923;45.412;10.852;2023-01-19T03:35:25;4.95;;;3.97;;
43327;SDS011;28923;45.412;10.852;2023-01-19T03:37:54;4.53;;;3.85;;
43327;SDS011;28923;45.412;10.852;2023-01-19T03:40:20;4.72;;;4.22;;
43327;SDS011;28923;45.412;10.852;2023-01-19T03:42:46;4.30;;;3.67;;
43327;SDS011;28923;45.412;10.852;2023-01-19T03:45:13;4.93;;;3.90;;
43327;SDS011;28923;45.412;10.852;2023-01-19T03:47:38;4.18;;;3.72;;
43327;SDS011;28923;45.412;10.852;2023-01-19T03:50:05;4.85;;;3.60;;
43327;SDS011;28923;45.412;10.852;2023-01-19T03:52:32;5.18;;;3.95;;
43327;SDS011;28923;45.412;10.852;2023-01-19T03:55:00;5.43;;;4.25;;
43327;SDS011;28923;45.412;10.852;2023-01-19T03:57:26;4.20;;;3.67;;
43327;SDS011;28923;45.412;10.852;2023-01-19T03:59:51;4.35;;;3.70;;
43327;SDS011;28923;45.412;10.852;2023-01-19T04:02:17;5.13;;;4.13;;
43327;SDS011;28923;45.412;10.852;2023-01-19T04:04:43;4.20;;;3.80;;
43327;SDS011;28923;45.412;10.852;2023-01-19T04:07:09;4.25;;;3.22;;
43327;SDS011;28923;45.412;10.852;2023-01-19T04:09:34;4.65;;;3.70;;
43327;SDS011;28923;45.412;10.852;2023-01-19T04:12:00;4.97;;;3.97;;
43327;SDS011;28923;45.412;10.852;2023-01-19T04:14:26;4.53;;;3.88;;
43327;SDS011;28923;45.412;10.852;2023-01-19T04:16:51;4.60;;;3.67;;
43327;SDS011;28923;45.412;10.852;2023-01-19T04:19:16;5.05;;;4.18;;
43327;SDS011;28923;45.412;10.852;2023-01-19T04:21:42;4.72;;;3.90;;
43327;SDS011;28923;45.412;10.852;2023-01-19T04:24:08;3.90;;;3.50;;
43327;SDS011;28923;45.412;10.852;2023-01-19T04:26:33;4.45;;;3.80;;
43327;SDS011;28923;45.412;10.852;2023-01-19T04:28:59;4.40;;;3.90;;
43327;SDS011;28923;45.412;10.852;2023-01-19T04:31:24;4.88;;;3.92;;
43327;SDS011;28923;45.412;10.852;2023-01-19T04:33:50;4.22;;;3.65;;
43327;SDS011;28923;45.412;10.852;2023-01-19T04:36:15;4.22;;;3.70;;
43327;SDS011;28923;45.412;10.852;2023-01-19T04:38:40;4.93;;;3.83;;
43327;SDS011;28923;45.412;10.852;2023-01-19T04:41:06;3.45;;;3.15;;
43327;SDS011;28923;45.412;10.852;2023-01-19T04:43:31;4.75;;;3.95;;
43327;SDS011;28923;45.412;10.852;2023-01-19T04:45:57;3.67;;;3.33;;
43327;SDS011;28923;45.412;10.852;2023-01-19T04:48:23;4.18;;;3.55;;
43327;SDS011;28923;45.412;10.852;2023-01-19T04:50:49;3.90;;;3.50;;
43327;SDS011;28923;45.412;10.852;2023-01-19T04:53:15;3.92;;;3.55;;
43327;SDS011;28923;45.412;10.852;2023-01-19T04:55:42;3.95;;;3.55;;
43327;SDS011;28923;45.412;10.852;2023-01-19T04:58:08;3.95;;;3.40;;
43327;SDS011;28923;45.412;10.852;2023-01-19T05:00:34;4.47;;;3.83;;
43327;SDS011;28923;45.412;10.852;2023-01-19T05:02:59;4.25;;;3.55;;
43327;SDS011;28923;45.412;10.852;2023-01-19T05:05:25;4.50;;;3.60;;
43327;SDS011;28923;45.412;10.852;2023-01-19T05:07:51;5.20;;;3.70;;
43327;SDS011;28923;45.412;10.852;2023-01-19T05:10:16;5.10;;;4.05;;
43327;SDS011;28923;45.412;10.852;2023-01-19T05:12:42;4.20;;;3.67;;
43327;SDS011;28923;45.412;10.852;2023-01-19T05:15:07;4.15;;;3.60;;
43327;SDS011;28923;45.412;10.852;2023-01-19T05:17:33;3.67;;;3.38;;
43327;SDS011;28923;45.412;10.852;2023-01-19T05:19:59;4.22;;;3.80;;
43327;SDS011;28923;45.412;10.852;2023-01-19T05:22:24;4.72;;;3.80;;
43327;SDS011;28923;45.412;10.852;2023-01-19T05:24:49;4.70;;;3.60;;
43327;SDS011;28923;45.412;10.852;2023-01-19T05:27:15;4.18;;;3.70;;
43327;SDS011;28923;45.412;10.852;2023-01-19T05:29:40;3.75;;;3.35;;
43327;SDS011;28923;45.412;10.852;2023-01-19T05:32:06;3.70;;;3.30;;
43327;SDS011;28923;45.412;10.852;2023-01-19T05:34:31;4.45;;;3.50;;
43327;SDS011;28923;45.412;10.852;2023-01-19T05:36:56;3.72;;;3.17;;
43327;SDS011;28923;45.412;10.852;2023-01-19T05:39:22;4.32;;;3.70;;
43327;SDS011;28923;45.412;10.852;2023-01-19T05:41:47;4.63;;;3.70;;
43327;SDS011;28923;45.412;10.852;2023-01-19T05:44:13;3.40;;;3.10;;
43327;SDS011;28923;45.412;10.852;2023-01-19T05:46:38;3.80;;;3.25;;
43327;SDS011;28923;45.412;10.852;2023-01-19T05:49:04;3.85;;;3.35;;
43327;SDS011;28923;45.412;10.852;2023-01-19T05:51:31;4.65;;;3.53;;
43327;SDS011;28923;45.412;10.852;2023-01-19T05:54:02;4.50;;;3.10;;
43327;SDS011;28923;45.412;10.852;2023-01-19T05:56:27;3.80;;;3.40;;
43327;SDS011;28923;45.412;10.852;2023-01-19T05:58:53;3.25;;;2.92;;
43327;SDS011;28923;45.412;10.852;2023-01-19T06:01:18;4.13;;;3.40;;
43327;SDS011;28923;45.412;10.852;2023-01-19T06:03:44;4.68;;;3.55;;
43327;SDS011;28923;45.412;10.852;2023-01-19T06:06:09;3.38;;;3.08;;
43327;SDS011;28923;45.412;10.852;2023-01-19T06:08:34;3.40;;;3.10;;
43327;SDS011;28923;45.412;10.852;2023-01-19T06:11:00;5.30;;;3.10;;
43327;SDS011;28923;45.412;10.852;2023-01-19T06:13:25;4.05;;;3.35;;
43327;SDS011;28923;45.412;10.852;2023-01-19T06:16:00;5.35;;;2.85;;
43327;SDS011;28923;45.412;10.852;2023-01-19T06:18:26;4.13;;;3.22;;
43327;SDS011;28923;45.412;10.852;2023-01-19T06:20:52;4.97;;;2.80;;
43327;SDS011;28923;45.412;10.852;2023-01-19T06:23:29;6.75;;;3.10;;
43327;SDS011;28923;45.412;10.852;2023-01-19T06:25:54;7.03;;;3.05;;
43327;SDS011;28923;45.412;10.852;2023-01-19T06:28:20;6.22;;;3.28;;
43327;SDS011;28923;45.412;10.852;2023-01-19T06:30:49;13.90;;;3.60;;
43327;SDS011;28923;45.412;10.852;2023-01-19T06:33:15;7.68;;;3.20;;
43327;SDS011;28923;45.412;10.852;2023-01-19T06:35:42;6.22;;;2.88;;
43327;SDS011;28923;45.412;10.852;2023-01-19T06:38:07;5.70;;;3.08;;
43327;SDS011;28923;45.412;10.852;2023-01-19T06:40:32;6.25;;;2.97;;
43327;SDS011;28923;45.412;10.852;2023-01-19T06:42:58;9.63;;;2.95;;
43327;SDS011;28923;45.412;10.852;2023-01-19T06:45:23;7.38;;;2.95;;
43327;SDS011;28923;45.412;10.852;2023-01-19T06:47:48;8.90;;;3.20;;
43327;SDS011;28923;45.412;10.852;2023-01-19T06:50:14;7.20;;;3.00;;
43327;SDS011;28923;45.412;10.852;2023-01-19T06:52:40;6.05;;;2.80;;
43327;SDS011;28923;45.412;10.852;2023-01-19T06:55:09;5.32;;;2.88;;
43327;SDS011;28923;45.412;10.852;2023-01-19T06:57:38;9.35;;;2.83;;
43327;SDS011;28923;45.412;10.852;2023-01-19T07:00:04;4.95;;;2.40;;
43327;SDS011;28923;45.412;10.852;2023-01-19T07:02:34;5.18;;;2.65;;
43327;SDS011;28923;45.412;10.852;2023-01-19T07:05:00;5.60;;;2.13;;
43327;SDS011;28923;45.412;10.852;2023-01-19T07:07:25;10.77;;;2.90;;
43327;SDS011;28923;45.412;10.852;2023-01-19T07:09:50;8.07;;;2.63;;
43327;SDS011;28923;45.412;10.852;2023-01-19T07:12:16;5.90;;;2.60;;
43327;SDS011;28923;45.412;10.852;2023-01-19T07:14:42;6.35;;;2.25;;
43327;SDS011;28923;45.412;10.852;2023-01-19T07:17:07;5.88;;;2.65;;
43327;SDS011;28923;45.412;10.852;2023-01-19T07:19:33;5.55;;;2.42;;
43327;SDS011;28923;45.412;10.852;2023-01-19T07:21:59;7.47;;;2.72;;
43327;SDS011;28923;45.412;10.852;2023-01-19T07:24:25;9.73;;;3.08;;
43327;SDS011;28923;45.412;10.852;2023-01-19T07:36:24;5.38;;;2.17;;
43327;SDS011;28923;45.412;10.852;2023-01-19T07:38:49;11.68;;;2.53;;
43327;SDS011;28923;45.412;10.852;2023-01-19T07:41:14;7.97;;;2.10;;
43327;SDS011;28923;45.412;10.852;2023-01-19T07:43:40;7.75;;;2.30;;
43327;SDS011;28923;45.412;10.852;2023-01-19T07:46:05;4.72;;;1.90;;
43327;SDS011;28923;45.412;10.852;2023-01-19T07:48:32;7.07;;;2.00;;
43327;SDS011;28923;45.412;10.852;2023-01-19T07:50:58;4.20;;;1.92;;
43327;SDS011;28923;45.412;10.852;2023-01-19T07:53:23;5.68;;;2.30;;
43327;SDS011;28923;45.412;10.852;2023-01-19T07:55:52;6.93;;;1.92;;
43327;SDS011;28923;45.412;10.852;2023-01-19T07:58:18;6.30;;;2.17;;
43327;SDS011;28923;45.412;10.852;2023-01-19T08:00:43;3.90;;;2.03;;
43327;SDS011;28923;45.412;10.852;2023-01-19T08:03:08;6.55;;;2.22;;
43327;SDS011;28923;45.412;10.852;2023-01-19T08:05:34;4.57;;;1.60;;
43327;SDS011;28923;45.412;10.852;2023-01-19T08:07:59;5.85;;;1.88;;
43327;SDS011;28923;45.412;10.852;2023-01-19T08:10:25;5.90;;;2.10;;
43327;SDS011;28923;45.412;10.852;2023-01-19T08:12:54;6.07;;;3.20;;
43327;SDS011;28923;45.412;10.852;2023-01-19T08:15:20;7.20;;;3.22;;
43327;SDS011;28923;45.412;10.852;2023-01-19T08:17:57;7.35;;;3.28;;
43327;SDS011;28923;45.412;10.852;2023-01-19T08:20:23;6.55;;;2.90;;
43327;SDS011;28923;45.412;10.852;2023-01-19T08:22:48;6.35;;;3.15;;
43327;SDS011;28923;45.412;10.852;2023-01-19T08:25:14;7.43;;;3.38;;
43327;SDS011;28923;45.412;10.852;2023-01-19T08:27:39;6.10;;;3.80;;
43327;SDS011;28923;45.412;10.852;2023-01-19T08:30:05;6.88;;;4.00;;
43327;SDS011;28923;45.412;10.852;2023-01-19T08:32:30;7.72;;;4.13;;
43327;SDS011;28923;45.412;10.852;2023-01-19T08:34:56;6.93;;;4.20;;
43327;SDS011;28923;45.412;10.852;2023-01-19T08:37:22;8.65;;;5.10;;
43327;SDS011;28923;45.412;10.852;2023-01-19T08:39:49;6.03;;;4.70;;
43327;SDS011;28923;45.412;10.852;2023-01-19T08:42:14;8.07;;;4.53;;
43327;SDS011;28923;45.412;10.852;2023-01-19T08:44:39;9.80;;;4.50;;
43327;SDS011;28923;45.412;10.852;2023-01-19T08:47:05;7.18;;;3.83;;
43327;SDS011;28923;45.412;10.852;2023-01-19T08:49:30;6.57;;;4.20;;
43327;SDS011;28923;45.412;10.852;2023-01-19T08:51:55;9.25;;;4.13;;
43327;SDS011;28923;45.412;10.852;2023-01-19T08:54:21;8.20;;;4.55;;
43327;SDS011;28923;45.412;10.852;2023-01-19T08:56:47;8.63;;;4.45;;
43327;SDS011;28923;45.412;10.852;2023-01-19T08:59:12;9.65;;;4.25;;
43327;SDS011;28923;45.412;10.852;2023-01-19T09:01:38;8.43;;;4.30;;
43327;SDS011;28923;45.412;10.852;2023-01-19T09:04:03;10.23;;;4.40;;
43327;SDS011;28923;45.412;10.852;2023-01-19T09:06:29;7.65;;;3.85;;
43327;SDS011;28923;45.412;10.852;2023-01-19T09:08:54;7.80;;;4.25;;
43327;SDS011;28923;45.412;10.852;2023-01-19T09:11:20;8.70;;;4.28;;
43327;SDS011;28923;45.412;10.852;2023-01-19T09:13:45;7.03;;;3.80;;
43327;SDS011;28923;45.412;10.852;2023-01-19T09:16:11;9.07;;;3.90;;
43327;SDS011;28923;45.412;10.852;2023-01-19T09:18:37;7.65;;;3.85;;
43327;SDS011;28923;45.412;10.852;2023-01-19T09:21:02;5.07;;;2.90;;
43327;SDS011;28923;45.412;10.852;2023-01-19T09:23:28;5.80;;;3.30;;
43327;SDS011;28923;45.412;10.852;2023-01-19T09:25:58;5.43;;;3.38;;
43327;SDS011;28923;45.412;10.852;2023-01-19T09:28:24;10.18;;;3.90;;
43327;SDS011;28923;45.412;10.852;2023-01-19T09:30:49;8.23;;;3.35;;
43327;SDS011;28923;45.412;10.852;2023-01-19T09:33:16;5.65;;;3.08;;
43327;SDS011;28923;45.412;10.852;2023-01-19T09:35:42;7.05;;;3.60;;
43327;SDS011;28923;45.412;10.852;2023-01-19T09:38:08;7.57;;;3.42;;
43327;SDS011;28923;45.412;10.852;2023-01-19T09:40:41;4.20;;;3.10;;
43327;SDS011;28923;45.412;10.852;2023-01-19T09:43:12;6.50;;;3.17;;
43327;SDS011;28923;45.412;10.852;2023-01-19T09:45:59;6.03;;;3.05;;
43327;SDS011;28923;45.412;10.852;2023-01-19T09:48:32;5.43;;;3.38;;
43327;SDS011;28923;45.412;10.852;2023-01-19T09:51:01;5.10;;;2.50;;
43327;SDS011;28923;45.412;10.852;2023-01-19T09:53:33;8.02;;;2.53;;
43327;SDS011;28923;45.412;10.852;2023-01-19T09:56:03;8.98;;;3.40;;
43327;SDS011;28923;45.412;10.852;2023-01-19T09:58:28;6.28;;;2.63;;
43327;SDS011;28923;45.412;10.852;2023-01-19T10:00:56;6.50;;;2.72;;
43327;SDS011;28923;45.412;10.852;2023-01-19T10:03:23;5.22;;;3.00;;
43327;SDS011;28923;45.412;10.852;2023-01-19T10:05:57;3.88;;;2.45;;
43327;SDS011;28923;45.412;10.852;2023-01-19T10:08:38;4.03;;;2.53;;
43327;SDS011;28923;45.412;10.852;2023-01-19T10:11:08;10.45;;;2.90;;
43327;SDS011;28923;45.412;10.852;2023-01-19T10:13:42;3.58;;;2.42;;
43327;SDS011;28923;45.412;10.852;2023-01-19T10:26:01;3.80;;;2.28;;
43327;SDS011;28923;45.412;10.852;2023-01-19T10:28:28;4.05;;;2.55;;
43327;SDS011;28923;45.412;10.852;2023-01-19T10:30:54;4.85;;;2.90;;
43327;SDS011;28923;45.412;10.852;2023-01-19T10:33:20;4.05;;;2.35;;
43327;SDS011;28923;45.412;10.852;2023-01-19T10:35:45;3.63;;;2.00;;
43327;SDS011;28923;45.412;10.852;2023-01-19T10:38:13;3.42;;;2.30;;
43327;SDS011;28923;45.412;10.852;2023-01-19T10:40:54;6.00;;;2.75;;
43327;SDS011;28923;45.412;10.852;2023-01-19T10:45:58;3.67;;;2.30;;
43327;SDS011;28923;45.412;10.852;2023-01-19T10:48:23;3.97;;;2.50;;
43327;SDS011;28923;45.412;10.852;2023-01-19T10:50:48;3.65;;;2.17;;
43327;SDS011;28923;45.412;10.852;2023-01-19T10:53:25;6.22;;;2.30;;
43327;SDS011;28923;45.412;10.852;2023-01-19T10:56:07;4.57;;;2.40;;
43327;SDS011;28923;45.412;10.852;2023-01-19T10:58:33;3.60;;;2.08;;
43327;SDS011;28923;45.412;10.852;2023-01-19T11:01:11;4.70;;;2.25;;
43327;SDS011;28923;45.412;10.852;2023-01-19T11:03:37;5.45;;;2.10;;
43327;SDS011;28923;45.412;10.852;2023-01-19T11:06:24;4.35;;;1.98;;
43327;SDS011;28923;45.412;10.852;2023-01-19T11:08:48;3.08;;;2.05;;
43327;SDS011;28923;45.412;10.852;2023-01-19T11:11:16;2.67;;;1.95;;
43327;SDS011;28923;45.412;10.852;2023-01-19T11:13:42;2.63;;;1.98;;
43327;SDS011;28923;45.412;10.852;2023-01-19T11:16:27;2.90;;;2.03;;
43327;SDS011;28923;45.412;10.852;2023-01-19T11:18:53;2.60;;;1.88;;
43327;SDS011;28923;45.412;10.852;2023-01-19T11:21:23;4.22;;;1.70;;
43327;SDS011;28923;45.412;10.852;2023-01-19T11:23:49;3.53;;;1.95;;
43327;SDS011;28923;45.412;10.852;2023-01-19T11:26:23;2.55;;;1.83;;
43327;SDS011;28923;45.412;10.852;2023-01-19T11:28:49;3.50;;;1.83;;
43327;SDS011;28923;45.412;10.852;2023-01-19T11:31:18;3.47;;;1.90;;
43327;SDS011;28923;45.412;10.852;2023-01-19T11:36:16;4.18;;;2.10;;
43327;SDS011;28923;45.412;10.852;2023-01-19T11:38:44;2.53;;;1.98;;
43327;SDS011;28923;45.412;10.852;2023-01-19T11:43:51;2.10;;;1.73;;
43327;SDS011;28923;45.412;10.852;2023-01-19T11:46:17;2.40;;;1.88;;
43327;SDS011;28923;45.412;10.852;2023-01-19T11:51:15;3.70;;;2.05;;
43327;SDS011;28923;45.412;10.852;2023-01-19T11:53:41;1.98;;;1.60;;
43327;SDS011;28923;45.412;10.852;2023-01-19T11:56:10;4.45;;;1.60;;
43327;SDS011;28923;45.412;10.852;2023-01-19T11:58:36;4.45;;;1.73;;
43327;SDS011;28923;45.412;10.852;2023-01-19T12:01:05;3.17;;;1.83;;
43327;SDS011;28923;45.412;10.852;2023-01-19T12:03:34;3.35;;;1.58;;
43327;SDS011;28923;45.412;10.852;2023-01-19T12:06:05;3.20;;;1.80;;
43327;SDS011;28923;45.412;10.852;2023-01-19T12:08:45;1.95;;;1.55;;
43327;SDS011;28923;45.412;10.852;2023-01-19T12:11:13;2.42;;;1.48;;
43327;SDS011;28923;45.412;10.852;2023-01-19T12:13:40;4.60;;;1.70;;
43327;SDS011;28923;45.412;10.852;2023-01-19T12:18:38;4.03;;;1.33;;
43327;SDS011;28923;45.412;10.852;2023-01-19T12:21:05;6.47;;;1.40;;
43327;SDS011;28923;45.412;10.852;2023-01-19T12:28:40;2.35;;;1.33;;
43327;SDS011;28923;45.412;10.852;2023-01-19T12:31:06;3.90;;;1.85;;
43327;SDS011;28923;45.412;10.852;2023-01-19T12:43:46;2.60;;;1.55;;
43327;SDS011;28923;45.412;10.852;2023-01-19T12:46:28;3.75;;;1.50;;
43327;SDS011;28923;45.412;10.852;2023-01-19T12:48:54;1.63;;;1.13;;
43327;SDS011;28923;45.412;10.852;2023-01-19T12:51:23;1.85;;;1.30;;
43327;SDS011;28923;45.412;10.852;2023-01-19T12:53:50;2.28;;;1.55;;
43327;SDS011;28923;45.412;10.852;2023-01-19T12:56:15;1.67;;;1.38;;
43327;SDS011;28923;45.412;10.852;2023-01-19T12:58:45;2.30;;;1.30;;
43327;SDS011;28923;45.412;10.852;2023-01-19T13:01:15;1.20;;;1.05;;
43327;SDS011;28923;45.412;10.852;2023-01-19T13:04:04;2.38;;;1.38;;
43327;SDS011;28923;45.412;10.852;2023-01-19T13:09:28;1.40;;;1.20;;
43327;SDS011;28923;45.412;10.852;2023-01-19T13:14:37;2.67;;;1.20;;
43327;SDS011;28923;45.412;10.852;2023-01-19T13:17:03;1.55;;;1.10;;
43327;SDS011;28923;45.412;10.852;2023-01-19T13:19:40;3.08;;;1.42;;
43327;SDS011;28923;45.412;10.852;2023-01-19T13:25:04;2.33;;;1.20;;
43327;SDS011;28923;45.412;10.852;2023-01-19T13:27:30;1.55;;;1.15;;
43327;SDS011;28923;45.412;10.852;2023-01-19T13:29:55;1.80;;;1.38;;
43327;SDS011;28923;45.412;10.852;2023-01-19T13:32:21;1.35;;;1.20;;
43327;SDS011;28923;45.412;10.852;2023-01-19T13:34:54;1.83;;;1.25;;
43327;SDS011;28923;45.412;10.852;2023-01-19T13:37:27;1.73;;;1.38;;
43327;SDS011;28923;45.412;10.852;2023-01-19T13:39:54;1.63;;;1.20;;
43327;SDS011;28923;45.412;10.852;2023-01-19T13:42:28;1.52;;;1.30;;
43327;SDS011;28923;45.412;10.852;2023-01-19T13:44:55;1.10;;;1.00;;
43327;SDS011;28923;45.412;10.852;2023-01-19T13:47:34;1.30;;;1.13;;
43327;SDS011;28923;45.412;10.852;2023-01-19T13:50:01;1.92;;;1.20;;
43327;SDS011;28923;45.412;10.852;2023-01-19T13:52:27;1.85;;;1.40;;
43327;SDS011;28923;45.412;10.852;2023-01-19T13:54:54;2.08;;;1.30;;
43327;SDS011;28923;45.412;10.852;2023-01-19T13:57:20;1.63;;;0.90;;
43327;SDS011;28923;45.412;10.852;2023-01-19T13:59:59;1.77;;;1.10;;
43327;SDS011;28923;45.412;10.852;2023-01-19T14:02:24;1.85;;;1.20;;
43327;SDS011;28923;45.412;10.852;2023-01-19T14:04:50;2.45;;;1.27;;
43327;SDS011;28923;45.412;10.852;2023-01-19T14:07:17;2.00;;;1.10;;
43327;SDS011;28923;45.412;10.852;2023-01-19T14:09:59;3.00;;;1.13;;
43327;SDS011;28923;45.412;10.852;2023-01-19T14:12:24;2.25;;;1.20;;
43327;SDS011;28923;45.412;10.852;2023-01-19T14:14:50;1.60;;;1.02;;
43327;SDS011;28923;45.412;10.852;2023-01-19T14:17:25;2.28;;;1.20;;
43327;SDS011;28923;45.412;10.852;2023-01-19T14:19:55;1.45;;;1.10;;
43327;SDS011;28923;45.412;10.852;2023-01-19T14:22:35;3.70;;;1.10;;
43327;SDS011;28923;45.412;10.852;2023-01-19T14:27:45;1.77;;;1.20;;
43327;SDS011;28923;45.412;10.852;2023-01-19T14:30:20;2.53;;;0.90;;
43327;SDS011;28923;45.412;10.852;2023-01-19T14:32:46;1.73;;;1.30;;
43327;SDS011;28923;45.412;10.852;2023-01-19T14:35:13;1.33;;;1.17;;
43327;SDS011;28923;45.412;10.852;2023-01-19T14:37:46;1.65;;;1.00;;
43327;SDS011;28923;45.412;10.852;2023-01-19T14:40:17;2.97;;;0.88;;
43327;SDS011;28923;45.412;10.852;2023-01-19T14:42:56;2.40;;;1.20;;
43327;SDS011;28923;45.412;10.852;2023-01-19T14:45:27;6.72;;;1.58;;
43327;SDS011;28923;45.412;10.852;2023-01-19T14:47:58;4.78;;;1.30;;
43327;SDS011;28923;45.412;10.852;2023-01-19T14:50:26;7.88;;;1.67;;
43327;SDS011;28923;45.412;10.852;2023-01-19T14:52:58;2.60;;;1.20;;
43327;SDS011;28923;45.412;10.852;2023-01-19T14:55:27;2.33;;;1.10;;
43327;SDS011;28923;45.412;10.852;2023-01-19T14:57:56;3.05;;;1.48;;
43327;SDS011;28923;45.412;10.852;2023-01-19T15:00:21;3.40;;;0.98;;
43327;SDS011;28923;45.412;10.852;2023-01-19T15:02:46;2.55;;;1.08;;
43327;SDS011;28923;45.412;10.852;2023-01-19T15:05:12;2.95;;;1.20;;
43327;SDS011;28923;45.412;10.852;2023-01-19T15:07:38;3.03;;;1.10;;
43327;SDS011;28923;45.412;10.852;2023-01-19T15:10:04;2.28;;;1.02;;
43327;SDS011;28923;45.412;10.852;2023-01-19T15:12:34;1.83;;;1.40;;
43327;SDS011;28923;45.412;10.852;2023-01-19T15:14:59;4.50;;;1.20;;
43327;SDS011;28923;45.412;10.852;2023-01-19T15:17:25;1.33;;;1.17;;
43327;SDS011;28923;45.412;10.852;2023-01-19T15:19:51;1.92;;;1.35;;
43327;SDS011;28923;45.412;10.852;2023-01-19T15:22:17;5.70;;;1.10;;
43327;SDS011;28923;45.412;10.852;2023-01-19T15:24:42;2.53;;;1.52;;
43327;SDS011;28923;45.412;10.852;2023-01-19T15:27:09;1.10;;;0.90;;
43327;SDS011;28923;45.412;10.852;2023-01-19T15:29:34;1.27;;;1.05;;
43327;SDS011;28923;45.412;10.852;2023-01-19T15:32:00;1.88;;;1.48;;
43327;SDS011;28923;45.412;10.852;2023-01-19T15:34:26;1.30;;;1.20;;
43327;SDS011;28923;45.412;10.852;2023-01-19T15:36:51;1.30;;;1.20;;
43327;SDS011;28923;45.412;10.852;2023-01-19T15:39:17;1.38;;;1.27;;
43327;SDS011;28923;45.412;10.852;2023-01-19T15:41:42;1.33;;;1.05;;
43327;SDS011;28923;45.412;10.852;2023-01-19T15:44:08;1.80;;;1.38;;
43327;SDS011;28923;45.412;10.852;2023-01-19T15:46:34;2.08;;;1.70;;
43327;SDS011;28923;45.412;10.852;2023-01-19T15:49:00;1.88;;;1.60;;
43327;SDS011;28923;45.412;10.852;2023-01-19T15:51:25;2.55;;;1.52;;